createdAt,value
2018-09-29T00:02:39.780Z,3.50
2018-09-29T00:05:20.368Z,4.13
2018-09-29T00:08:01.926Z,4.10
2018-09-29T00:10:43.091Z,3.97
2018-09-29T00:13:24.532Z,3.80
2018-09-29T00:16:05.271Z,3.60
2018-09-29T00:18:46.666Z,3.47
2018-09-29T00:21:27.172Z,3.57
2018-09-29T00:24:07.727Z,4.33
2018-09-29T00:26:48.179Z,3.80
2018-09-29T00:29:28.788Z,3.63
2018-09-29T00:32:09.428Z,3.30
2018-09-29T00:34:50.843Z,3.60
2018-09-29T00:37:31.532Z,4.03
2018-09-29T00:40:12.934Z,4.27
2018-09-29T00:42:53.413Z,3.63
2018-09-29T00:45:34.012Z,4.00
2018-09-29T00:48:14.591Z,3.97
2018-09-29T00:50:55.964Z,3.50
2018-09-29T00:53:36.475Z,4.50
2018-09-29T00:56:17.011Z,3.70
2018-09-29T00:58:57.544Z,4.27
2018-09-29T01:01:38.931Z,4.10
2018-09-29T01:04:19.379Z,4.20
2018-09-29T01:06:59.948Z,4.20
2018-09-29T01:09:40.387Z,4.20
2018-09-29T01:12:20.999Z,4.50
2018-09-29T01:15:01.554Z,4.00
2018-09-29T01:17:42.032Z,4.10
2018-09-29T01:20:22.636Z,4.30
2018-09-29T01:23:03.980Z,3.70
2018-09-29T01:25:44.523Z,4.10
2018-09-29T01:28:25.416Z,4.07
2018-09-29T01:31:07.240Z,3.53
2018-09-29T01:33:47.871Z,3.70
2018-09-29T01:36:29.244Z,4.03
2018-09-29T01:39:11.651Z,4.10
2018-09-29T01:41:52.091Z,3.40
2018-09-29T01:44:33.463Z,3.23
2018-09-29T01:47:14.203Z,3.40
2018-09-29T01:49:55.425Z,3.30
2018-09-29T01:52:36.047Z,4.20
2018-09-29T01:55:17.415Z,4.03
2018-09-29T01:57:58.890Z,3.80
2018-09-29T02:00:40.317Z,3.23
2018-09-29T02:03:20.876Z,3.53
2018-09-29T02:06:01.460Z,3.73
2018-09-29T02:08:42.831Z,3.13
2018-09-29T02:11:23.407Z,4.03
2018-09-29T02:14:05.036Z,3.50
2018-09-29T02:16:46.264Z,3.67
2018-09-29T02:19:26.736Z,4.00
2018-09-29T02:22:07.271Z,3.57
2018-09-29T02:24:48.743Z,4.30
2018-09-29T02:27:30.028Z,3.97
2018-09-29T02:30:10.648Z,3.70
2018-09-29T02:32:51.292Z,4.27
2018-09-29T02:35:32.767Z,3.80
2018-09-29T02:38:14.208Z,4.33
2018-09-29T02:40:55.594Z,4.23
2018-09-29T02:43:36.271Z,3.63
2018-09-29T02:46:16.729Z,3.70
2018-09-29T02:48:57.294Z,3.90
2018-09-29T02:51:37.831Z,4.00
2018-09-29T02:54:19.296Z,3.70
2018-09-29T02:57:00.427Z,3.93
2018-09-29T02:59:41.201Z,3.40
2018-09-29T03:02:21.664Z,3.60
2018-09-29T03:05:02.199Z,3.80
2018-09-29T03:07:42.612Z,4.00
2018-09-29T03:10:23.104Z,3.93
2018-09-29T03:13:03.623Z,3.83
2018-09-29T03:15:44.196Z,3.50
2018-09-29T03:18:24.631Z,4.13
2018-09-29T03:21:06.020Z,4.00
2018-09-29T03:23:46.479Z,3.53
2018-09-29T03:26:27.902Z,3.80
2018-09-29T03:29:08.491Z,3.70
2018-09-29T03:31:49.529Z,4.30
2018-09-29T03:34:30.524Z,3.80
2018-09-29T03:37:11.189Z,3.90
2018-09-29T03:39:51.655Z,4.30
2018-09-29T03:42:32.132Z,4.07
2018-09-29T03:45:13.648Z,4.07
2018-09-29T03:47:55.157Z,4.00
2018-09-29T03:50:36.552Z,4.40
2018-09-29T03:53:17.041Z,3.83
2018-09-29T03:55:57.663Z,4.13
2018-09-29T03:58:38.940Z,3.90
2018-09-29T04:01:20.068Z,4.10
2018-09-29T04:04:00.959Z,3.83
2018-09-29T04:06:41.508Z,4.00
2018-09-29T04:09:22.014Z,4.03
2018-09-29T04:12:02.701Z,3.80
2018-09-29T04:14:43.183Z,4.50
2018-09-29T04:17:23.763Z,4.37
2018-09-29T04:20:04.353Z,5.17
2018-09-29T04:22:45.755Z,4.50
2018-09-29T04:25:26.344Z,3.47
2018-09-29T04:28:06.940Z,2.93
2018-09-29T04:30:48.351Z,3.40
2018-09-29T04:33:28.851Z,3.30
2018-09-29T04:36:10.121Z,3.40
2018-09-29T04:38:50.860Z,3.87
2018-09-29T04:41:32.180Z,3.50
2018-09-29T04:44:13.527Z,3.40
2018-09-29T04:46:54.952Z,4.23
2018-09-29T04:49:35.492Z,3.60
2018-09-29T04:52:16.901Z,4.20
2018-09-29T04:54:57.463Z,4.40
2018-09-29T04:57:38.863Z,3.50
2018-09-29T05:00:19.419Z,4.40
2018-09-29T05:03:00.980Z,4.10
2018-09-29T05:05:42.275Z,4.67
2018-09-29T05:08:23.619Z,6.17
2018-09-29T05:11:04.248Z,5.43
2018-09-29T05:13:44.855Z,4.77
2018-09-29T05:16:25.489Z,5.80
2018-09-29T05:19:05.979Z,5.50
2018-09-29T05:21:46.539Z,5.70
2018-09-29T05:24:27.943Z,4.90
2018-09-29T05:27:08.543Z,4.50
2018-09-29T05:29:49.059Z,4.40
2018-09-29T05:32:29.631Z,5.50
2018-09-29T05:35:11.023Z,6.30
2018-09-29T05:37:51.561Z,5.73
2018-09-29T05:40:32.124Z,6.10
2018-09-29T05:43:13.491Z,5.80
2018-09-29T05:45:54.069Z,5.60
2018-09-29T05:48:35.432Z,5.10
2018-09-29T05:51:16.094Z,5.60
2018-09-29T05:53:57.415Z,5.67
2018-09-29T05:56:39.271Z,6.20
2018-09-29T05:59:20.387Z,5.77
2018-09-29T06:02:00.963Z,6.23
2018-09-29T06:04:42.409Z,5.67
2018-09-29T06:07:23.827Z,5.37
2018-09-29T06:10:04.315Z,5.13
2018-09-29T06:12:44.903Z,6.50
2018-09-29T06:15:25.459Z,5.30
2018-09-29T06:18:07.060Z,5.00
2018-09-29T06:20:48.339Z,4.73
2018-09-29T06:23:29.731Z,4.70
2018-09-29T06:26:11.107Z,5.17
2018-09-29T06:28:51.589Z,5.40
2018-09-29T06:31:32.302Z,4.80
2018-09-29T06:34:13.526Z,5.23
2018-09-29T06:36:54.923Z,5.70
2018-09-29T06:39:36.251Z,5.53
2018-09-29T06:42:17.578Z,5.90
2018-09-29T06:44:58.107Z,6.47
2018-09-29T06:47:39.436Z,7.33
2018-09-29T06:50:20.891Z,8.00
2018-09-29T06:53:01.399Z,7.40
2018-09-29T06:55:42.408Z,5.93
2018-09-29T06:58:23.347Z,5.33
2018-09-29T07:01:03.895Z,9.23
2018-09-29T07:03:45.304Z,7.70
2018-09-29T07:06:25.799Z,8.17
2018-09-29T07:09:06.323Z,8.07
2018-09-29T07:11:47.692Z,5.23
2018-09-29T07:14:28.251Z,6.23
2018-09-29T07:17:08.794Z,6.13
2018-09-29T07:19:50.160Z,6.23
2018-09-29T07:22:30.676Z,6.70
2018-09-29T07:25:11.221Z,5.70
2018-09-29T07:27:51.739Z,5.57
2018-09-29T07:30:32.321Z,5.60
2018-09-29T07:33:12.857Z,4.43
2018-09-29T07:35:53.432Z,5.73
2018-09-29T07:38:34.763Z,5.53
2018-09-29T07:41:15.329Z,6.80
2018-09-29T07:43:57.372Z,5.07
2018-09-29T07:46:38.215Z,5.30
2018-09-29T07:49:20.246Z,6.50
2018-09-29T07:52:01.179Z,6.17
2018-09-29T07:54:42.547Z,6.00
2018-09-29T07:57:23.026Z,4.90
2018-09-29T08:00:03.488Z,5.43
2018-09-29T08:02:44.068Z,5.57
2018-09-29T08:05:25.392Z,4.83
2018-09-29T08:08:05.851Z,5.93
2018-09-29T08:10:46.292Z,6.13
2018-09-29T08:13:26.908Z,6.40
2018-09-29T08:16:08.298Z,7.27
2018-09-29T08:18:48.759Z,6.73
2018-09-29T08:21:29.223Z,6.00
2018-09-29T08:24:10.620Z,7.10
2018-09-29T08:26:51.215Z,7.00
2018-09-29T08:29:31.868Z,6.80
2018-09-29T08:32:13.323Z,6.30
2018-09-29T08:34:53.945Z,6.30
2018-09-29T08:37:35.372Z,6.43
2018-09-29T08:40:16.105Z,6.87
2018-09-29T08:42:57.363Z,6.90
2018-09-29T08:45:37.792Z,6.90
2018-09-29T08:48:18.296Z,7.77
2018-09-29T08:50:58.897Z,8.10
2018-09-29T08:53:39.506Z,9.07
2018-09-29T08:56:20.847Z,8.00
2018-09-29T08:59:01.323Z,8.70
2018-09-29T09:01:41.803Z,8.23
2018-09-29T09:04:22.338Z,6.40
2018-09-29T09:07:03.820Z,7.00
2018-09-29T09:09:44.307Z,6.13
2018-09-29T09:12:24.892Z,6.93
2018-09-29T09:15:06.339Z,7.47
2018-09-29T09:17:46.888Z,6.00
2018-09-29T09:20:27.428Z,6.40
2018-09-29T09:23:08.951Z,6.03
2018-09-29T09:25:50.355Z,6.73
2018-09-29T09:28:30.960Z,7.50
2018-09-29T09:31:12.289Z,5.90
2018-09-29T09:33:52.799Z,5.80
2018-09-29T09:36:33.275Z,7.60
2018-09-29T09:39:13.771Z,7.10
2018-09-29T09:41:54.275Z,7.77
2018-09-29T09:44:34.783Z,6.63
2018-09-29T09:47:15.314Z,7.87
2018-09-29T09:49:55.948Z,7.23
2018-09-29T09:52:37.448Z,5.93
2018-09-29T09:55:18.923Z,8.30
2018-09-29T09:58:00.288Z,7.60
2018-09-29T10:00:46.120Z,7.23
2018-09-29T10:03:29.852Z,7.80
2018-09-29T10:06:10.855Z,7.13
2018-09-29T10:08:51.319Z,7.50
2018-09-29T10:11:31.974Z,6.77
2018-09-29T10:14:12.456Z,7.27
2018-09-29T10:16:53.089Z,8.33
2018-09-29T10:19:33.624Z,9.67
2018-09-29T10:22:15.049Z,10.77
2018-09-29T10:24:55.563Z,9.80
2018-09-29T10:27:36.150Z,10.20
2018-09-29T10:30:16.698Z,9.47
2018-09-29T10:32:57.224Z,10.63
2018-09-29T10:35:38.592Z,10.20
2018-09-29T10:38:19.058Z,9.17
2018-09-29T10:40:59.600Z,9.67
2018-09-29T10:43:40.287Z,11.10
2018-09-29T10:46:22.395Z,12.80
2018-09-29T10:49:03.462Z,11.00
2018-09-29T10:51:45.080Z,10.47
2018-09-29T10:54:26.248Z,12.90
2018-09-29T10:57:06.796Z,11.20
2018-09-29T10:59:47.304Z,10.43
2018-09-29T11:02:27.805Z,11.00
2018-09-29T11:05:08.969Z,11.97
2018-09-29T11:07:49.983Z,13.53
2018-09-29T11:10:31.280Z,13.77
2018-09-29T11:13:11.781Z,14.80
2018-09-29T11:15:52.308Z,13.53
2018-09-29T11:18:32.940Z,11.67
2018-09-29T11:21:14.148Z,13.53
2018-09-29T11:23:54.845Z,14.47
2018-09-29T11:26:35.431Z,15.13
2018-09-29T11:29:16.847Z,11.53
2018-09-29T11:31:57.515Z,12.80
2018-09-29T11:34:38.899Z,12.40
2018-09-29T11:37:19.479Z,11.77
2018-09-29T11:40:00.835Z,11.40
2018-09-29T11:42:41.420Z,10.77
2018-09-29T11:45:21.917Z,11.77
2018-09-29T11:48:03.324Z,9.00
2018-09-29T11:50:43.831Z,12.70
2018-09-29T11:53:25.155Z,10.27
2018-09-29T11:56:06.272Z,11.67
2018-09-29T11:58:47.148Z,12.60
2018-09-29T12:01:28.415Z,12.80
2018-09-29T12:04:08.891Z,11.60
2018-09-29T12:06:49.356Z,9.97
2018-09-29T12:09:30.759Z,10.63
2018-09-29T12:12:11.287Z,13.30
2018-09-29T12:14:51.759Z,14.77
2018-09-29T12:17:32.316Z,11.07
2018-09-29T12:20:12.983Z,9.30
2018-09-29T12:22:53.488Z,9.10
2018-09-29T12:25:34.028Z,10.70
2018-09-29T12:28:14.591Z,11.67
2018-09-29T12:30:55.071Z,10.77
2018-09-29T12:33:35.650Z,9.47
2018-09-29T12:36:17.042Z,9.43
2018-09-29T12:38:57.671Z,9.57
2018-09-29T12:41:39.100Z,9.50
2018-09-29T12:44:20.553Z,10.97
2018-09-29T12:47:01.981Z,9.03
2018-09-29T12:49:42.471Z,13.23
2018-09-29T12:52:22.959Z,11.70
2018-09-29T12:55:03.751Z,14.17
2018-09-29T12:57:45.051Z,13.40
2018-09-29T13:00:26.531Z,12.70
2018-09-29T13:03:07.015Z,13.43
2018-09-29T13:05:48.018Z,14.43
2018-09-29T13:08:29.060Z,13.70
2018-09-29T13:11:11.096Z,14.23
2018-09-29T13:13:51.927Z,15.30
2018-09-29T13:16:32.612Z,15.73
2018-09-29T13:19:13.210Z,15.40
2018-09-29T13:21:54.608Z,13.50
2018-09-29T13:24:36.021Z,17.40
2018-09-29T13:27:17.487Z,17.03
2018-09-29T13:29:58.032Z,18.07
2018-09-29T13:32:39.391Z,16.67
2018-09-29T13:35:19.979Z,17.30
2018-09-29T13:38:01.315Z,18.10
2018-09-29T13:40:41.859Z,17.20
2018-09-29T13:43:22.439Z,18.20
2018-09-29T13:46:03.824Z,17.80
2018-09-29T13:48:45.243Z,18.37
2018-09-29T13:51:26.699Z,20.57
2018-09-29T13:54:08.138Z,20.67
2018-09-29T13:56:49.567Z,16.20
2018-09-29T13:59:31.034Z,16.53
2018-09-29T14:02:11.696Z,17.17
2018-09-29T14:04:52.147Z,17.00
2018-09-29T14:07:32.779Z,14.40
2018-09-29T14:10:14.176Z,18.03
2018-09-29T14:12:55.604Z,15.80
2018-09-29T14:15:37.056Z,16.57
2018-09-29T14:18:18.523Z,16.17
2018-09-29T14:20:59.979Z,16.40
2018-09-29T14:23:40.496Z,14.00
2018-09-29T14:26:20.924Z,14.90
2018-09-29T14:29:02.304Z,15.77
2018-09-29T14:31:42.840Z,12.87
2018-09-29T14:34:23.315Z,11.07
2018-09-29T14:37:03.904Z,12.97
2018-09-29T14:39:44.392Z,13.00
2018-09-29T14:42:25.088Z,11.17
2018-09-29T14:45:06.491Z,10.60
2018-09-29T14:47:47.932Z,12.80
2018-09-29T14:50:28.559Z,12.77
2018-09-29T14:53:09.219Z,13.07
2018-09-29T14:55:50.656Z,14.93
2018-09-29T14:58:31.232Z,15.50
2018-09-29T15:01:11.721Z,14.77
2018-09-29T15:03:52.288Z,14.70
2018-09-29T15:06:32.975Z,14.60
2018-09-29T15:09:14.468Z,15.60
2018-09-29T15:11:55.943Z,14.17
2018-09-29T15:14:36.485Z,14.40
2018-09-29T15:17:17.099Z,14.47
2018-09-29T15:19:57.656Z,14.00
2018-09-29T15:22:38.158Z,13.77
2018-09-29T15:25:18.768Z,12.47
2018-09-29T15:28:00.223Z,11.30
2018-09-29T15:30:41.627Z,14.63
2018-09-29T15:33:22.123Z,14.80
2018-09-29T15:36:02.611Z,13.43
2018-09-29T15:38:43.193Z,12.90
2018-09-29T15:41:24.615Z,11.77
2018-09-29T15:44:05.199Z,12.40
2018-09-29T15:46:46.632Z,10.10
2018-09-29T15:49:27.144Z,10.80
2018-09-29T15:52:07.671Z,10.57
2018-09-29T15:54:49.038Z,13.27
2018-09-29T15:57:29.624Z,14.37
2018-09-29T16:00:10.160Z,13.13
2018-09-29T16:02:50.700Z,13.20
2018-09-29T16:05:32.180Z,15.97
2018-09-29T16:08:12.643Z,14.80
2018-09-29T16:10:54.100Z,16.00
2018-09-29T16:13:34.712Z,14.43
2018-09-29T16:16:15.215Z,15.03
2018-09-29T16:18:56.727Z,17.00
2018-09-29T16:21:38.096Z,15.60
2018-09-29T16:24:19.448Z,15.30
2018-09-29T16:27:00.819Z,16.37
2018-09-29T16:29:42.182Z,14.70
2018-09-29T16:32:22.631Z,16.07
2018-09-29T16:35:03.360Z,14.40
2018-09-29T16:37:44.751Z,12.47
2018-09-29T16:40:26.824Z,11.77
2018-09-29T16:43:07.840Z,11.07
2018-09-29T16:45:49.167Z,9.77
2018-09-29T16:48:29.640Z,11.20
2018-09-29T16:51:10.176Z,8.20
2018-09-29T16:53:50.800Z,9.77
2018-09-29T16:56:31.396Z,10.13
2018-09-29T16:59:12.787Z,9.70
2018-09-29T17:01:54.228Z,9.20
2018-09-29T17:04:34.901Z,10.07
2018-09-29T17:07:15.323Z,9.73
2018-09-29T17:09:56.688Z,9.30
2018-09-29T17:12:37.259Z,9.80
2018-09-29T17:15:18.571Z,9.67
2018-09-29T17:17:59.300Z,9.80
2018-09-29T17:20:40.784Z,9.63
2018-09-29T17:23:22.200Z,10.00
2018-09-29T17:26:02.795Z,10.67
2018-09-29T17:28:44.197Z,9.70
2018-09-29T17:31:24.626Z,10.30
2018-09-29T17:34:06.051Z,8.17
2018-09-29T17:36:46.631Z,9.17
2018-09-29T17:39:27.079Z,10.00
2018-09-29T17:42:08.342Z,8.30
2018-09-29T17:44:49.779Z,9.53
2018-09-29T17:47:30.324Z,8.67
2018-09-29T17:50:11.083Z,8.23
2018-09-29T17:52:52.445Z,8.43
2018-09-29T17:55:33.843Z,8.30
2018-09-29T17:58:15.308Z,8.33
2018-09-29T18:00:56.000Z,8.10
2018-09-29T18:03:37.320Z,7.30
2018-09-29T18:06:17.832Z,7.40
2018-09-29T18:08:58.383Z,7.40
2018-09-29T18:11:39.759Z,7.10
2018-09-29T18:14:20.309Z,7.40
2018-09-29T18:17:00.879Z,8.10
2018-09-29T18:19:42.324Z,7.87
2018-09-29T18:22:23.847Z,7.50
2018-09-29T18:25:05.307Z,7.47
2018-09-29T18:27:45.743Z,7.50
2018-09-29T18:30:26.311Z,6.53
2018-09-29T18:33:06.892Z,7.77
2018-09-29T18:35:48.399Z,7.00
2018-09-29T18:38:29.831Z,7.63
2018-09-29T18:41:10.479Z,6.97
2018-09-29T18:43:51.855Z,7.40
2018-09-29T18:46:32.542Z,8.43
2018-09-29T18:49:13.848Z,7.83
2018-09-29T18:51:54.486Z,7.67
2018-09-29T18:54:34.991Z,7.97
2018-09-29T18:57:15.520Z,7.33
2018-09-29T18:59:56.163Z,7.63
2018-09-29T19:02:36.759Z,8.10
2018-09-29T19:05:17.314Z,7.57
2018-09-29T19:07:58.739Z,8.13
2018-09-29T19:10:39.499Z,9.23
2018-09-29T19:13:20.809Z,9.10
2018-09-29T19:16:01.292Z,8.07
2018-09-29T19:18:41.860Z,8.03
2018-09-29T19:21:22.319Z,8.20
2018-09-29T19:24:02.915Z,7.73
2018-09-29T19:26:44.232Z,7.77
2018-09-29T19:29:24.889Z,8.03
2018-09-29T19:32:06.384Z,8.07
2018-09-29T19:34:47.756Z,7.73
2018-09-29T19:37:28.337Z,9.10
2018-09-29T19:40:08.845Z,7.50
2018-09-29T19:42:50.259Z,7.90
2018-09-29T19:45:30.970Z,6.70
2018-09-29T19:48:11.520Z,7.73
2018-09-29T19:50:52.923Z,9.00
2018-09-29T19:53:33.431Z,8.63
2018-09-29T19:56:14.403Z,7.93
2018-09-29T19:58:56.284Z,9.57
2018-09-29T20:01:36.912Z,8.10
2018-09-29T20:04:17.491Z,8.33
2018-09-29T20:06:59.369Z,7.10
2018-09-29T20:09:40.393Z,7.50
2018-09-29T20:46:41.219Z,7.77
2018-09-29T20:49:22.445Z,8.70
2018-09-29T20:52:02.963Z,6.93
2018-09-29T20:54:43.655Z,7.60
2018-09-29T20:57:24.963Z,6.80
2018-09-29T21:00:05.576Z,6.77
2018-09-29T21:02:46.133Z,8.13
2018-09-29T21:05:27.559Z,6.97
2018-09-29T21:08:08.223Z,8.60
2018-09-29T21:10:49.579Z,7.20
2018-09-29T21:13:30.371Z,7.50
2018-09-29T21:16:11.645Z,7.10
2018-09-29T21:18:53.121Z,7.20
2018-09-29T21:21:34.491Z,6.83
2018-09-29T21:24:15.938Z,6.43
2018-09-29T21:26:57.256Z,7.10
2018-09-29T21:29:38.828Z,6.43
2018-09-29T21:32:19.349Z,6.70
2018-09-29T21:34:59.879Z,6.73
2018-09-29T21:37:40.379Z,6.60
2018-09-29T21:40:20.832Z,7.47
2018-09-29T21:43:02.239Z,7.20
2018-09-29T21:45:42.803Z,6.00
2018-09-29T21:48:24.253Z,7.30
2018-09-29T21:51:04.730Z,6.67
2018-09-29T21:53:45.252Z,6.40
2018-09-29T21:56:26.767Z,6.73
2018-09-29T21:59:08.183Z,6.67
2018-09-29T22:01:48.666Z,6.17
2018-09-29T22:04:30.122Z,5.93
2018-09-29T22:07:10.619Z,6.87
2018-09-29T22:09:51.207Z,6.70
2018-09-29T22:12:31.687Z,6.60
2018-09-29T22:15:12.172Z,6.50
2018-09-29T22:17:53.617Z,6.50
2018-09-29T22:20:35.024Z,6.43
2018-09-29T22:23:16.244Z,6.37
2018-09-29T22:25:57.156Z,6.30
2018-09-29T22:28:38.479Z,6.13
2018-09-29T22:31:19.867Z,7.50
2018-09-29T22:34:01.070Z,6.10
2018-09-29T22:36:41.856Z,6.20
2018-09-29T22:39:23.268Z,5.80
2018-09-29T22:42:03.764Z,7.50
2018-09-29T22:44:45.130Z,6.20
2018-09-29T22:47:25.635Z,7.20
2018-09-29T22:50:06.323Z,6.13
2018-09-29T22:52:47.748Z,7.07
2018-09-29T22:55:28.288Z,6.70
2018-09-29T22:58:09.079Z,6.37
2018-09-29T23:00:50.568Z,7.00
2018-09-29T23:03:31.855Z,6.10
2018-09-29T23:06:12.426Z,6.43
2018-09-29T23:08:53.037Z,6.57
2018-09-29T23:11:34.272Z,5.97
2018-09-29T23:14:15.663Z,6.10
2018-09-29T23:16:56.188Z,7.10
2018-09-29T23:19:37.583Z,7.00
2018-09-29T23:22:19.042Z,6.53
2018-09-29T23:25:00.415Z,6.10
2018-09-29T23:27:40.892Z,5.83
2018-09-29T23:30:22.227Z,7.00
2018-09-29T23:33:02.831Z,7.03
2018-09-29T23:35:44.232Z,6.70
2018-09-29T23:38:24.911Z,6.27
2018-09-29T23:41:06.083Z,6.80
2018-09-29T23:43:46.680Z,6.27
2018-09-29T23:46:28.107Z,6.73
2018-09-29T23:49:09.515Z,6.60
2018-09-29T23:51:50.953Z,5.70
2018-09-29T23:54:31.439Z,6.23
2018-09-29T23:57:12.779Z,6.93
2018-09-29T23:59:53.360Z,6.43
